Time;durP1;ratioP1;P1;durP2;ratioP2;P2;SDS_P1;SDS_P2;PMS_P1;PMS_P2;Temp;Humidity;BMP_temperature;BMP_pressure;BME280_temperature;BME280_humidity;BME280_pressure;Samples;Min_cycle;Max_cycle;Signal;HPM_P1;HPM_P2
2021/05/11 00:00:24;;;;;;;27.77;16.63;;;13.70;99.90;;;;;;5033553;28;20231;-81
2021/05/11 00:02:51;;;;;;;26.60;17.73;;;13.70;99.90;;;;;;5033348;28;20251;-81
2021/05/11 00:05:17;;;;;;;22.75;15.90;;;13.70;99.90;;;;;;5034448;28;20223;-80
2021/05/11 00:07:44;;;;;;;24.73;16.15;;;13.70;99.90;;;;;;5037112;28;20487;-82
2021/05/11 00:10:12;;;;;;;27.20;19.13;;;13.70;99.90;;;;;;5039315;28;20222;-82
2021/05/11 00:12:38;;;;;;;25.55;17.05;;;13.70;99.90;;;;;;5039461;28;20235;-82
2021/05/11 00:15:06;;;;;;;24.35;16.35;;;13.70;99.90;;;;;;5040626;28;20187;-82
2021/05/11 00:17:33;;;;;;;26.60;17.77;;;13.80;99.90;;;;;;5039755;28;20188;-81
2021/05/11 00:20:00;;;;;;;27.35;18.48;;;13.80;99.90;;;;;;5037925;28;20223;-82
2021/05/11 00:22:26;;;;;;;29.45;17.30;;;13.80;99.90;;;;;;5037634;28;20215;-82
2021/05/11 00:24:53;;;;;;;25.45;17.77;;;13.80;99.90;;;;;;5037777;28;20204;-82
2021/05/11 00:27:20;;;;;;;25.98;17.05;;;13.80;99.90;;;;;;5037796;28;20200;-83
2021/05/11 00:29:46;;;;;;;24.85;17.27;;;13.80;99.90;;;;;;5036781;28;20208;-81
2021/05/11 00:32:13;;;;;;;28.35;17.60;;;13.80;99.90;;;;;;5035962;28;20223;-83
2021/05/11 00:34:39;;;;;;;25.63;16.48;;;13.80;99.90;;;;;;5035574;28;20234;-80
2021/05/11 00:37:07;;;;;;;23.67;17.08;;;13.80;99.90;;;;;;5036363;28;20242;-82
2021/05/11 00:39:33;;;;;;;24.52;16.35;;;13.90;99.90;;;;;;5036385;28;20227;-82
2021/05/11 00:42:00;;;;;;;26.20;16.30;;;13.90;99.90;;;;;;5035834;28;20228;-81
2021/05/11 00:44:27;;;;;;;22.48;15.85;;;13.80;99.90;;;;;;5037161;28;20231;-81
2021/05/11 00:46:57;;;;;;;23.40;15.88;;;13.80;99.90;;;;;;5036932;28;20220;-82
2021/05/11 00:49:24;;;;;;;22.80;15.55;;;13.80;99.90;;;;;;5035011;28;20263;-82
2021/05/11 00:51:51;;;;;;;24.10;16.27;;;13.80;99.90;;;;;;5036180;28;20211;-82
2021/05/11 00:54:19;;;;;;;20.75;15.57;;;13.80;99.90;;;;;;5037125;28;20215;-82
2021/05/11 00:56:47;;;;;;;23.95;15.38;;;13.80;99.90;;;;;;5039199;28;20219;-81
2021/05/11 00:59:18;;;;;;;19.70;14.68;;;13.80;99.90;;;;;;5031812;28;20204;-80
2021/05/11 01:01:44;;;;;;;21.35;15.68;;;13.80;99.90;;;;;;5026213;28;20231;-82
2021/05/11 01:04:12;;;;;;;21.00;15.30;;;13.80;99.90;;;;;;5030178;28;20872;-81
2021/05/11 01:06:38;;;;;;;24.40;16.85;;;13.80;99.90;;;;;;5029196;28;20223;-80
2021/05/11 01:09:06;;;;;;;21.88;15.07;;;13.80;99.90;;;;;;5028564;28;20211;-81
2021/05/11 01:11:34;;;;;;;24.75;16.38;;;13.90;99.90;;;;;;5029760;28;20248;-81
2021/05/11 01:14:00;;;;;;;22.25;15.95;;;13.90;99.90;;;;;;5036334;28;20216;-80
2021/05/11 01:16:29;;;;;;;22.10;15.82;;;13.90;99.90;;;;;;5029558;28;20216;-81
2021/05/11 01:18:59;;;;;;;20.40;15.65;;;13.90;99.90;;;;;;5029032;28;20287;-80
2021/05/11 01:21:34;;;;;;;23.17;16.75;;;14.00;99.90;;;;;;5029735;28;20231;-81
2021/05/11 01:24:05;;;;;;;21.67;16.48;;;14.00;99.90;;;;;;5029988;28;20191;-81
2021/05/11 01:26:37;;;;;;;21.00;15.60;;;14.00;99.90;;;;;;5029144;28;20218;-82
2021/05/11 01:29:17;;;;;;;21.17;15.18;;;14.00;99.90;;;;;;5029512;28;20211;-82
2021/05/11 01:48:24;;;;;;;22.42;16.20;;;13.80;99.90;;;;;;5036915;28;20199;-80
2021/05/11 01:50:57;;;;;;;21.65;16.30;;;13.80;99.90;;;;;;5037468;28;20195;-81
2021/05/11 01:56:22;;;;;;;18.80;13.65;;;13.80;99.90;;;;;;5037046;28;20184;-82
2021/05/11 01:59:07;;;;;;;20.52;15.30;;;13.70;99.90;;;;;;5034772;28;20192;-81
2021/05/11 02:23:42;;;;;;;21.60;16.20;;;13.70;99.90;;;;;;5016928;28;20203;-80
2021/05/11 02:26:08;;;;;;;23.92;17.70;;;13.70;99.90;;;;;;5016869;28;20824;-80
2021/05/11 02:28:36;;;;;;;25.38;16.83;;;13.80;99.90;;;;;;5023079;28;20262;-80
2021/05/11 02:31:02;;;;;;;23.92;17.55;;;13.80;99.90;;;;;;5027300;28;20203;-80
2021/05/11 02:33:29;;;;;;;27.23;18.45;;;13.80;99.90;;;;;;5027072;28;20212;-79
2021/05/11 02:35:55;;;;;;;26.48;17.92;;;13.80;99.90;;;;;;5021838;28;20234;-79
2021/05/11 02:38:22;;;;;;;20.35;16.45;;;13.80;99.90;;;;;;5024469;28;20238;-80
2021/05/11 02:40:48;;;;;;;21.27;16.02;;;13.80;99.90;;;;;;5026666;28;20227;-80
2021/05/11 02:43:17;;;;;;;19.95;16.25;;;13.70;99.90;;;;;;5024451;28;20238;-80
2021/05/11 02:45:44;;;;;;;21.10;16.02;;;13.70;99.90;;;;;;5025803;28;20219;-80
2021/05/11 02:48:11;;;;;;;22.23;15.38;;;13.80;99.90;;;;;;5029695;28;20223;-79
2021/05/11 02:50:37;;;;;;;17.05;13.43;;;13.80;99.90;;;;;;5031502;28;20327;-79
2021/05/11 02:53:05;;;;;;;17.98;14.07;;;13.80;99.90;;;;;;5031112;28;20247;-80
2021/05/11 02:55:31;;;;;;;17.48;13.80;;;13.80;99.90;;;;;;5031277;28;20211;-79
2021/05/11 02:57:59;;;;;;;19.45;14.35;;;13.80;99.90;;;;;;5031075;28;20219;-80
2021/05/11 03:00:27;;;;;;;19.60;13.40;;;13.80;99.90;;;;;;5030977;28;20236;-80
2021/05/11 03:02:55;;;;;;;16.83;12.80;;;13.80;99.90;;;;;;5031454;28;20242;-80
2021/05/11 03:05:22;;;;;;;17.58;13.10;;;13.70;99.90;;;;;;5030372;28;20220;-79
2021/05/11 03:07:48;;;;;;;18.05;13.00;;;13.70;99.90;;;;;;5031115;28;20200;-79
2021/05/11 03:10:17;;;;;;;16.05;13.70;;;13.70;99.90;;;;;;5030941;28;20266;-79
2021/05/11 03:12:43;;;;;;;17.65;13.57;;;13.70;99.90;;;;;;5031470;28;20227;-80
2021/05/11 03:15:11;;;;;;;18.35;13.18;;;13.60;99.90;;;;;;5032108;28;20184;-81
2021/05/11 03:17:38;;;;;;;19.63;13.80;;;13.60;99.90;;;;;;5030232;28;20208;-80
2021/05/11 03:20:09;;;;;;;19.15;14.05;;;13.60;99.90;;;;;;5027834;28;20306;-81
2021/05/11 03:22:36;;;;;;;20.30;14.95;;;13.60;99.90;;;;;;5034631;28;20208;-79
2021/05/11 03:25:03;;;;;;;18.20;13.35;;;13.50;99.90;;;;;;5033584;28;20219;-79
2021/05/11 03:27:29;;;;;;;21.52;15.05;;;13.50;99.90;;;;;;5039211;28;20238;-79
2021/05/11 03:29:56;;;;;;;23.13;15.93;;;13.50;99.90;;;;;;5039672;28;20222;-79
2021/05/11 03:32:22;;;;;;;23.70;17.00;;;13.40;99.90;;;;;;5038574;28;20223;-78
2021/05/11 03:34:49;;;;;;;23.80;15.48;;;13.40;99.90;;;;;;5037643;28;20188;-78
2021/05/11 03:37:16;;;;;;;20.65;15.60;;;13.40;99.90;;;;;;5032938;28;20204;-82
2021/05/11 03:39:43;;;;;;;24.40;17.27;;;13.30;99.90;;;;;;5033403;28;20239;-80
2021/05/11 03:42:14;;;;;;;21.95;15.48;;;13.20;99.90;;;;;;5032344;28;20212;-79
2021/05/11 03:44:43;;;;;;;22.02;15.80;;;13.20;99.90;;;;;;5015483;28;20187;-79
2021/05/11 03:47:12;;;;;;;24.45;17.15;;;13.10;99.90;;;;;;5018131;28;20208;-79
2021/05/11 03:49:38;;;;;;;26.83;17.55;;;13.00;99.90;;;;;;5018087;28;20224;-80
2021/05/11 03:52:06;;;;;;;24.77;16.85;;;13.10;99.90;;;;;;5029446;28;20295;-80
2021/05/11 03:54:33;;;;;;;23.52;17.00;;;13.20;99.90;;;;;;5035651;28;20204;-80
2021/05/11 03:57:00;;;;;;;21.05;16.65;;;13.20;99.90;;;;;;5034369;28;20199;-80
2021/05/11 03:59:26;;;;;;;24.25;16.38;;;13.30;99.90;;;;;;5034852;28;20208;-82
2021/05/11 04:01:53;;;;;;;20.48;15.43;;;13.30;99.90;;;;;;5030055;28;20258;-80
2021/05/11 04:04:20;;;;;;;19.27;14.77;;;13.30;99.90;;;;;;5037670;28;20200;-82
2021/05/11 04:06:47;;;;;;;20.40;15.00;;;13.40;99.90;;;;;;5038829;28;20299;-81
2021/05/11 04:09:16;;;;;;;21.55;16.17;;;13.30;99.90;;;;;;5037811;28;20196;-80
2021/05/11 04:12:12;;;;;;;20.35;15.00;;;13.40;99.90;;;;;;5032292;28;20231;-79
2021/05/11 04:17:31;;;;;;;20.00;14.55;;;13.50;99.90;;;;;;5027282;28;20188;-80
2021/05/11 04:19:57;;;;;;;21.23;15.23;;;13.60;99.90;;;;;;5020523;28;20223;-78
2021/05/11 04:22:24;;;;;;;20.88;15.13;;;13.60;99.90;;;;;;5020306;28;20759;-81
2021/05/11 04:24:50;;;;;;;19.60;14.80;;;13.70;99.90;;;;;;5021719;28;20262;-81
2021/05/11 04:27:17;;;;;;;22.42;16.42;;;13.70;99.90;;;;;;5027059;28;20219;-81
2021/05/11 04:29:44;;;;;;;15.00;12.70;;;13.60;99.90;;;;;;5029947;28;20200;-82
2021/05/11 04:32:11;;;;;;;16.50;13.10;;;13.70;99.90;;;;;;5029058;28;20258;-80
2021/05/11 04:34:37;;;;;;;17.80;13.52;;;13.70;99.90;;;;;;5030535;28;20235;-81
2021/05/11 04:37:04;;;;;;;15.95;13.48;;;13.80;99.90;;;;;;5034539;28;20208;-80
2021/05/11 04:39:30;;;;;;;17.92;13.60;;;13.80;99.90;;;;;;5032436;28;20523;-79
2021/05/11 04:41:56;;;;;;;16.45;13.65;;;13.80;99.90;;;;;;5025565;28;20235;-79
2021/05/11 04:44:28;;;;;;;17.15;13.43;;;13.80;99.90;;;;;;5032925;28;20204;-79
2021/05/11 04:47:00;;;;;;;19.38;13.50;;;13.80;99.90;;;;;;5050726;28;20217;-80
2021/05/11 04:49:26;;;;;;;18.88;13.45;;;13.80;99.90;;;;;;5056104;28;20231;-81
2021/05/11 04:51:53;;;;;;;16.25;12.40;;;13.90;99.90;;;;;;5055791;28;20227;-81
2021/05/11 04:54:19;;;;;;;16.50;13.05;;;13.80;99.90;;;;;;5043226;28;20227;-80
2021/05/11 04:56:46;;;;;;;19.58;12.73;;;13.90;99.90;;;;;;5039457;28;20203;-80
2021/05/11 04:59:13;;;;;;;19.35;14.15;;;13.80;99.90;;;;;;5039602;28;20173;-80
2021/05/11 05:01:43;;;;;;;18.00;12.85;;;13.90;99.90;;;;;;5038230;28;20258;-80
2021/05/11 05:04:10;;;;;;;17.20;12.77;;;13.90;99.90;;;;;;5033085;28;20307;-80
2021/05/11 05:06:37;;;;;;;18.75;13.18;;;13.80;99.00;;;;;;5030312;28;20208;-80
2021/05/11 05:09:04;;;;;;;18.08;12.55;;;13.80;99.00;;;;;;5033563;28;20211;-80
2021/05/11 05:11:31;;;;;;;16.35;11.85;;;13.90;99.20;;;;;;5031641;28;20247;-80
2021/05/11 05:13:59;;;;;;;16.85;12.85;;;13.90;99.40;;;;;;5022401;28;20262;-80
2021/05/11 05:16:25;;;;;;;19.00;12.27;;;14.00;99.60;;;;;;5021005;28;20299;-81
2021/05/11 05:18:53;;;;;;;17.15;12.00;;;14.20;99.60;;;;;;5023743;28;20214;-80
2021/05/11 05:21:19;;;;;;;16.55;12.32;;;14.30;98.70;;;;;;5025952;28;20242;-81
2021/05/11 05:23:48;;;;;;;16.85;12.38;;;14.40;97.50;;;;;;5031750;28;20235;-82
2021/05/11 05:26:18;;;;;;;16.17;12.15;;;14.40;96.70;;;;;;5028945;28;20303;-81
2021/05/11 05:28:44;;;;;;;15.70;12.23;;;14.40;96.20;;;;;;5028603;28;20207;-81
2021/05/11 05:31:11;;;;;;;16.38;12.30;;;14.50;95.80;;;;;;5024240;28;20242;-81
2021/05/11 05:33:38;;;;;;;16.70;12.50;;;14.50;95.40;;;;;;5022412;28;20208;-81
2021/05/11 05:36:08;;;;;;;16.65;12.80;;;14.50;95.60;;;;;;5021325;28;20212;-80
2021/05/11 05:38:38;;;;;;;18.23;12.27;;;14.60;95.20;;;;;;5033716;28;20192;-80
2021/05/11 05:41:08;;;;;;;14.15;10.68;;;14.60;94.90;;;;;;5028672;28;20235;-80
2021/05/11 05:43:34;;;;;;;13.85;11.45;;;14.70;94.50;;;;;;5029155;28;20345;-80
2021/05/11 05:46:01;;;;;;;15.40;11.80;;;14.70;93.80;;;;;;5031862;28;20222;-79
2021/05/11 05:48:27;;;;;;;13.30;11.13;;;14.70;93.70;;;;;;5030624;28;20203;-79
2021/05/11 05:50:56;;;;;;;15.88;12.40;;;14.70;93.20;;;;;;5028684;28;20215;-80
2021/05/11 05:53:27;;;;;;;14.18;11.60;;;14.70;93.20;;;;;;5021782;28;20208;-81
2021/05/11 05:55:54;;;;;;;14.10;12.30;;;14.70;93.70;;;;;;5021594;28;20278;-81
2021/05/11 05:58:20;;;;;;;13.60;10.93;;;14.60;94.10;;;;;;5030990;28;20187;-80
2021/05/11 06:00:51;;;;;;;13.43;11.50;;;14.60;94.60;;;;;;5034971;28;20241;-80
2021/05/11 06:03:33;;;;;;;15.70;11.82;;;14.60;94.80;;;;;;5029804;28;20555;-80
2021/05/11 06:05:59;;;;;;;13.82;11.98;;;14.60;95.10;;;;;;5028789;28;20192;-81
2021/05/11 06:08:28;;;;;;;17.48;11.88;;;14.40;95.40;;;;;;5031630;28;20575;-81
2021/05/11 06:10:58;;;;;;;17.70;13.05;;;14.50;95.30;;;;;;5023525;28;20696;-81
2021/05/11 06:13:31;;;;;;;15.80;11.57;;;14.30;96.40;;;;;;5020454;28;20192;-81
2021/05/11 06:18:43;;;;;;;15.57;12.02;;;14.30;96.30;;;;;;5019122;28;20210;-81
2021/05/11 06:21:09;;;;;;;17.08;11.75;;;14.40;95.90;;;;;;5019894;28;20572;-80
2021/05/11 06:23:36;;;;;;;17.27;11.60;;;14.50;95.90;;;;;;5021555;28;20215;-80
2021/05/11 06:26:03;;;;;;;13.95;12.35;;;14.40;95.60;;;;;;5021503;28;20272;-81
2021/05/11 06:28:31;;;;;;;15.50;11.75;;;14.40;95.40;;;;;;5027648;28;20644;-80
2021/05/11 06:30:57;;;;;;;14.38;11.25;;;14.50;95.60;;;;;;5027855;28;20218;-80
2021/05/11 06:33:24;;;;;;;16.30;12.77;;;14.50;95.60;;;;;;5032483;28;20219;-79
2021/05/11 06:35:52;;;;;;;14.55;12.15;;;14.50;95.00;;;;;;5025487;28;20207;-78
2021/05/11 06:38:19;;;;;;;13.38;10.07;;;14.50;95.10;;;;;;5030716;28;20310;-78
2021/05/11 06:40:47;;;;;;;14.07;11.60;;;14.50;95.10;;;;;;5031995;28;20243;-79
2021/05/11 06:43:17;;;;;;;18.30;11.98;;;14.40;95.10;;;;;;5030362;28;20223;-78
2021/05/11 06:48:34;;;;;;;16.52;12.07;;;14.40;96.70;;;;;;5027021;28;20231;-80
2021/05/11 06:53:48;;;;;;;13.95;11.32;;;14.50;96.30;;;;;;5023566;28;20219;-79
2021/05/11 06:56:15;;;;;;;11.52;10.27;;;14.70;95.50;;;;;;5030574;28;20264;-79
2021/05/11 06:58:42;;;;;;;11.13;9.50;;;14.70;94.20;;;;;;5032194;28;20214;-79
2021/05/11 07:01:09;;;;;;;11.35;10.15;;;14.70;93.20;;;;;;5034604;28;20230;-79
2021/05/11 07:03:35;;;;;;;10.32;8.88;;;14.70;92.60;;;;;;5037334;28;20200;-80
2021/05/11 07:06:02;;;;;;;12.02;10.50;;;14.80;92.50;;;;;;5036605;28;20207;-79
2021/05/11 07:08:36;;;;;;;12.65;10.43;;;14.80;91.20;;;;;;5037395;28;20238;-80
2021/05/11 07:11:10;;;;;;;9.98;8.75;;;14.50;91.90;;;;;;5035252;28;20187;-81
2021/05/11 07:13:37;;;;;;;10.27;8.90;;;14.50;93.10;;;;;;5031428;28;20225;-80
2021/05/11 07:16:04;;;;;;;9.48;8.40;;;14.40;93.10;;;;;;5031538;28;20615;-80
2021/05/11 07:18:32;;;;;;;8.73;7.70;;;14.40;93.10;;;;;;5033717;28;20279;-80
2021/05/11 07:21:00;;;;;;;7.40;6.57;;;14.50;92.00;;;;;;5032375;28;20689;-79
2021/05/11 07:23:27;;;;;;;9.25;6.53;;;14.50;91.20;;;;;;5034242;28;20195;-79
2021/05/11 07:26:05;;;;;;;6.97;6.28;;;14.60;90.80;;;;;;5036998;28;20200;-82
2021/05/11 07:28:45;;;;;;;6.95;6.30;;;14.40;90.60;;;;;;5036998;28;20200;-81
2021/05/11 07:31:13;;;;;;;7.97;7.22;;;14.50;91.30;;;;;;5032108;28;20572;-82
2021/05/11 07:33:42;;;;;;;7.65;6.85;;;14.50;92.30;;;;;;5024396;28;20208;-80
2021/05/11 07:36:10;;;;;;;8.45;6.85;;;14.60;92.40;;;;;;5022311;28;20212;-80
2021/05/11 07:38:37;;;;;;;8.07;7.28;;;14.50;91.90;;;;;;5022938;28;20212;-82
2021/05/11 07:41:03;;;;;;;9.00;7.97;;;14.70;91.70;;;;;;5023729;28;20220;-79
2021/05/11 07:43:31;;;;;;;8.57;7.68;;;14.90;91.40;;;;;;5025874;28;20219;-80
2021/05/11 07:46:17;;;;;;;10.88;7.53;;;15.10;90.20;;;;;;5043886;28;20207;-80
2021/05/11 07:49:16;;;;;;;9.53;6.77;;;15.30;88.80;;;;;;5047997;28;20210;-79
2021/05/11 08:05:22;;;;;;;6.13;5.53;;;17.30;68.80;;;;;;5037960;28;20979;-79
2021/05/11 08:16:05;;;;;;;2.83;2.63;;;18.00;61.40;;;;;;5023585;28;20385;-79
2021/05/11 08:18:37;;;;;;;3.10;2.90;;;17.90;56.60;;;;;;5029677;28;20433;-79
2021/05/11 08:29:30;;;;;;;3.70;3.40;;;17.00;60.50;;;;;;5033922;28;20448;-79
2021/05/11 08:31:57;;;;;;;3.27;3.07;;;16.90;62.90;;;;;;5032442;28;20434;-82
2021/05/11 08:34:23;;;;;;;4.00;3.33;;;17.30;62.80;;;;;;5033533;28;20434;-79
2021/05/11 08:36:51;;;;;;;3.10;2.90;;;17.50;61.20;;;;;;5033346;28;20450;-81
2021/05/11 08:39:17;;;;;;;3.37;2.87;;;17.10;63.50;;;;;;5031000;28;20479;-80
2021/05/11 08:41:44;;;;;;;3.97;3.67;;;17.10;62.60;;;;;;5030266;28;20493;-79
2021/05/11 08:44:15;;;;;;;4.20;3.80;;;16.50;64.60;;;;;;5028269;28;20489;-80
2021/05/11 08:46:42;;;;;;;3.87;3.57;;;16.30;66.40;;;;;;5025970;28;20418;-82
2021/05/11 08:49:11;;;;;;;4.80;3.80;;;16.30;66.70;;;;;;5027593;28;20546;-79
2021/05/11 08:51:48;;;;;;;4.43;4.03;;;16.50;65.60;;;;;;5029358;28;20473;-79
2021/05/11 08:54:25;;;;;;;4.10;3.47;;;16.50;67.80;;;;;;5028446;28;20488;-81
2021/05/11 09:00:06;;;;;;;2.37;2.17;;;16.90;64.10;;;;;;5031531;28;20423;-79
2021/05/11 09:05:33;;;;;;;2.80;2.60;;;17.30;60.70;;;;;;5035072;28;20512;-79
2021/05/11 09:08:13;;;;;;;2.83;2.60;;;17.30;59.50;;;;;;5035407;28;20451;-80
2021/05/11 09:24:55;;;;;;;1.97;1.77;;;17.60;57.90;;;;;;5035314;28;20470;-80
2021/05/11 09:27:27;;;;;;;2.50;2.20;;;17.90;56.60;;;;;;5033299;28;20489;-80
2021/05/11 09:33:05;;;;;;;2.20;2.10;;;18.40;54.10;;;;;;4977530;28;20424;-80
2021/05/11 09:59:00;;;;;;;2.33;2.03;;;17.70;54.80;;;;;;4977561;28;20501;-79
2021/05/11 10:48:41;;;;;;;3.53;3.20;;;17.90;56.60;;;;;;5031411;28;20449;-82
2021/05/11 10:51:17;;;;;;;3.73;3.27;;;17.70;57.30;;;;;;5029780;28;20455;-81
2021/05/11 10:56:57;;;;;;;3.90;3.47;;;17.70;58.00;;;;;;5092301;23;20493;-82
2021/05/11 11:02:38;;;;;;;4.33;4.03;;;17.60;60.00;;;;;;5038385;28;20481;-83
2021/05/11 11:05:06;;;;;;;3.67;3.37;;;17.70;59.50;;;;;;5030908;28;20527;-84
2021/05/11 11:07:34;;;;;;;3.90;3.60;;;17.90;59.50;;;;;;5025261;28;20500;-81
2021/05/11 11:10:01;;;;;;;6.07;5.13;;;18.10;59.10;;;;;;5070121;22;20568;-79
2021/05/11 11:12:37;;;;;;;5.30;4.80;;;18.00;57.70;;;;;;5053466;28;20424;-80
2021/05/11 11:15:13;;;;;;;5.53;5.00;;;17.80;58.80;;;;;;5046344;28;20455;-79
2021/05/11 11:17:49;;;;;;;7.00;6.20;;;17.70;59.10;;;;;;5047460;28;20424;-80
2021/05/11 11:20:18;;;;;;;5.90;5.40;;;17.30;61.70;;;;;;5029534;28;20450;-78
2021/05/11 11:25:42;;;;;;;6.63;6.00;;;17.00;64.20;;;;;;5021132;28;20442;-77
2021/05/11 11:28:10;;;;;;;7.93;6.33;;;16.80;64.90;;;;;;5026922;28;20455;-78
2021/05/11 11:30:36;;;;;;;6.20;5.37;;;16.70;65.40;;;;;;5030885;28;20456;-80
2021/05/11 11:33:03;;;;;;;9.70;5.07;;;16.60;65.90;;;;;;5030875;28;20440;-79
2021/05/11 11:35:32;;;;;;;5.10;4.60;;;16.60;67.50;;;;;;5032156;28;20463;-79
2021/05/11 11:37:59;;;;;;;5.00;4.50;;;16.50;67.40;;;;;;5021051;28;20204;-78
2021/05/11 11:40:25;;;;;;;6.30;3.80;;;16.30;68.90;;;;;;5028905;28;20231;-79
2021/05/11 11:42:52;;;;;;;3.92;3.63;;;16.30;70.20;;;;;;5028087;28;20208;-79
2021/05/11 11:45:30;;;;;;;3.40;3.20;;;16.20;71.10;;;;;;5028374;28;20312;-78
2021/05/11 11:47:58;;;;;;;7.53;2.90;;;16.00;73.00;;;;;;5032396;28;20662;-79
2021/05/11 11:50:24;;;;;;;3.83;2.70;;;15.80;73.90;;;;;;5021157;28;20211;-77
2021/05/11 11:53:02;;;;;;;5.47;2.83;;;15.80;75.10;;;;;;5019830;28;20287;-78
2021/05/11 11:55:41;;;;;;;2.00;1.90;;;15.80;76.30;;;;;;5028886;28;20192;-80
2021/05/11 11:58:07;;;;;;;3.35;1.90;;;15.80;74.30;;;;;;5030748;28;20212;-80
2021/05/11 12:00:37;;;;;;;1.80;1.70;;;15.70;74.50;;;;;;5027583;28;20289;-80
2021/05/11 12:03:10;;;;;;;1.97;1.77;;;15.60;74.90;;;;;;5026460;28;20421;-78
2021/05/11 12:05:39;;;;;;;2.08;1.88;;;15.70;74.30;;;;;;5035709;28;20447;-78
2021/05/11 12:08:20;;;;;;;1.48;1.38;;;15.60;73.20;;;;;;5038096;28;20188;-78
2021/05/11 12:10:49;;;;;;;2.20;1.40;;;15.60;72.70;;;;;;5020860;28;20234;-79
2021/05/11 12:13:20;;;;;;;2.53;1.20;;;15.60;72.70;;;;;;5024001;28;20687;-79
2021/05/11 12:16:08;;;;;;;2.15;1.50;;;15.70;70.00;;;;;;5020001;28;20235;-79
2021/05/11 12:18:35;;;;;;;1.13;1.02;;;15.60;70.00;;;;;;5035222;28;20223;-78
2021/05/11 12:21:04;;;;;;;0.82;0.82;;;15.50;68.80;;;;;;5033993;28;20224;-78
2021/05/11 12:23:31;;;;;;;1.60;1.15;;;15.40;69.80;;;;;;5033008;28;20215;-78
2021/05/11 12:25:59;;;;;;;0.80;0.77;;;15.40;70.90;;;;;;5020554;28;20676;-78
2021/05/11 12:28:34;;;;;;;0.80;0.80;;;15.40;70.40;;;;;;5021854;28;20287;-78
2021/05/11 12:31:02;;;;;;;3.15;0.77;;;15.40;70.80;;;;;;5025776;28;20203;-79
2021/05/11 12:33:34;;;;;;;0.90;0.90;;;15.40;70.00;;;;;;5028014;28;20359;-78
2021/05/11 12:36:03;;;;;;;1.25;0.93;;;15.40;69.40;;;;;;5022543;28;20305;-79
2021/05/11 12:38:31;;;;;;;0.95;0.90;;;15.40;69.40;;;;;;5025987;28;20232;-80
2021/05/11 12:41:04;;;;;;;1.35;1.20;;;15.40;70.30;;;;;;5022753;28;20633;-79
2021/05/11 12:43:42;;;;;;;2.20;1.45;;;15.40;71.30;;;;;;5025921;28;20230;-79
2021/05/11 12:46:21;;;;;;;1.52;1.00;;;15.50;71.00;;;;;;5030210;28;20484;-77
2021/05/11 12:48:56;;;;;;;2.10;1.20;;;15.60;70.00;;;;;;5036874;28;20212;-77
2021/05/11 12:51:31;;;;;;;1.00;1.00;;;15.50;71.00;;;;;;5035939;28;20248;-78
2021/05/11 12:54:00;;;;;;;1.95;1.15;;;15.40;72.50;;;;;;5034497;28;20195;-79
2021/05/11 12:56:46;;;;;;;0.80;0.80;;;15.40;74.70;;;;;;5031351;28;20236;-79
2021/05/11 12:59:25;;;;;;;2.15;1.95;;;15.30;75.60;;;;;;5024697;28;20307;-80
2021/05/11 13:01:59;;;;;;;0.90;0.90;;;15.30;77.00;;;;;;5028216;28;20460;-80
2021/05/11 13:15:38;;;;;;;1.23;0.90;;;15.60;74.30;;;;;;5026392;28;20211;-80
2021/05/11 13:21:05;;;;;;;2.35;0.70;;;15.70;74.00;;;;;;5017417;28;20614;-81
2021/05/11 13:26:21;;;;;;;1.10;0.60;;;15.90;70.90;;;;;;5021503;28;20405;-80
2021/05/11 13:28:52;;;;;;;2.10;1.17;;;16.00;72.30;;;;;;5021306;28;20470;-80
2021/05/11 13:31:24;;;;;;;1.30;1.20;;;16.00;73.10;;;;;;5022672;28;20203;-80
2021/05/11 13:33:57;;;;;;;2.37;1.60;;;16.00;74.50;;;;;;5033569;28;20188;-80
2021/05/11 13:36:24;;;;;;;3.28;2.17;;;16.00;76.40;;;;;;5028395;28;20466;-81
2021/05/11 13:38:51;;;;;;;2.13;1.58;;;15.80;77.20;;;;;;5030566;28;20227;-80
2021/05/11 13:41:18;;;;;;;1.90;1.60;;;15.80;79.20;;;;;;5035392;28;20258;-80
2021/05/11 13:43:44;;;;;;;2.67;1.33;;;15.70;80.20;;;;;;5036722;28;20207;-79
2021/05/11 13:46:10;;;;;;;2.25;1.80;;;15.60;81.40;;;;;;5035210;28;20224;-80
2021/05/11 13:48:38;;;;;;;6.68;1.55;;;15.40;81.20;;;;;;5035134;28;20219;-80
2021/05/11 13:51:12;;;;;;;4.05;1.60;;;15.30;85.30;;;;;;5019824;28;20243;-79
2021/05/11 13:53:41;;;;;;;2.20;1.38;;;15.10;85.20;;;;;;5018175;28;20609;-80
2021/05/11 13:56:27;;;;;;;1.40;1.30;;;15.10;88.50;;;;;;5020551;28;20357;-79
2021/05/11 14:01:57;;;;;;;2.00;1.80;;;15.00;90.20;;;;;;5021475;28;20270;-79
2021/05/11 14:04:23;;;;;;;2.17;1.50;;;14.90;92.20;;;;;;5021008;28;20227;-81
2021/05/11 14:06:51;;;;;;;1.45;1.35;;;14.80;92.40;;;;;;5020266;28;20224;-80
2021/05/11 14:09:23;;;;;;;2.15;1.35;;;14.60;93.20;;;;;;5021191;28;20261;-80
2021/05/11 14:11:49;;;;;;;3.10;2.30;;;14.60;94.70;;;;;;5027965;28;20216;-80
2021/05/11 14:14:16;;;;;;;2.22;2.00;;;14.60;95.10;;;;;;5036553;28;20200;-79
2021/05/11 14:16:45;;;;;;;2.60;1.75;;;14.60;95.70;;;;;;5035655;28;20192;-78
2021/05/11 14:19:12;;;;;;;1.70;1.60;;;14.60;96.10;;;;;;5036570;28;20208;-79
2021/05/11 14:21:39;;;;;;;1.98;1.80;;;14.70;96.60;;;;;;5036733;28;20219;-80
2021/05/11 14:24:08;;;;;;;5.15;2.13;;;14.70;96.30;;;;;;5036004;28;20204;-79
2021/05/11 14:26:34;;;;;;;3.75;2.08;;;14.70;96.80;;;;;;5033949;28;20520;-77
2021/05/11 14:29:01;;;;;;;2.10;2.00;;;14.70;96.80;;;;;;5032654;28;20219;-78
2021/05/11 14:31:27;;;;;;;2.05;1.95;;;14.80;97.50;;;;;;5028373;28;20295;-78
2021/05/11 14:33:54;;;;;;;2.70;2.50;;;14.70;97.30;;;;;;5025988;28;20208;-78
2021/05/11 14:36:21;;;;;;;2.60;2.40;;;14.70;97.40;;;;;;5028932;28;20207;-78
2021/05/11 14:38:48;;;;;;;3.95;2.65;;;14.70;97.40;;;;;;5023225;28;20254;-78
2021/05/11 14:41:16;;;;;;;2.30;2.10;;;14.70;98.10;;;;;;5026008;28;20238;-78
2021/05/11 14:43:43;;;;;;;3.35;2.25;;;14.70;98.10;;;;;;5024185;28;20227;-78
2021/05/11 14:46:11;;;;;;;4.18;3.00;;;14.70;98.20;;;;;;5023351;28;20204;-78
2021/05/11 14:48:38;;;;;;;3.55;3.00;;;14.80;98.90;;;;;;5026152;28;20239;-77
2021/05/11 14:51:05;;;;;;;3.05;2.60;;;14.90;99.20;;;;;;5029294;28;20336;-78
2021/05/11 14:53:32;;;;;;;2.58;2.38;;;14.80;98.60;;;;;;5022537;28;20231;-78
2021/05/11 14:55:59;;;;;;;2.63;2.50;;;14.90;98.60;;;;;;5027982;28;20215;-78
2021/05/11 14:58:27;;;;;;;2.50;2.30;;;14.90;98.10;;;;;;5024310;28;20228;-77
2021/05/11 15:00:54;;;;;;;3.30;2.30;;;14.80;96.90;;;;;;5025515;28;20688;-78
2021/05/11 15:03:20;;;;;;;2.40;2.25;;;14.70;97.30;;;;;;5022619;28;20664;-77
2021/05/11 15:05:47;;;;;;;2.50;2.10;;;14.70;96.90;;;;;;5019750;28;20215;-77
2021/05/11 15:08:14;;;;;;;2.05;1.90;;;14.60;96.80;;;;;;5018885;28;20236;-78
2021/05/11 15:10:40;;;;;;;2.17;1.98;;;14.60;96.80;;;;;;5021751;28;20243;-77
2021/05/11 15:13:07;;;;;;;2.20;2.10;;;14.60;96.70;;;;;;5021304;28;20203;-78
2021/05/11 15:15:36;;;;;;;3.78;2.55;;;14.70;96.80;;;;;;5018330;28;20350;-78
2021/05/11 15:18:05;;;;;;;2.15;2.05;;;14.70;96.80;;;;;;5015598;28;20208;-78
2021/05/11 15:20:33;;;;;;;2.50;2.10;;;14.80;96.90;;;;;;5015104;28;20306;-80
2021/05/11 15:23:00;;;;;;;3.75;3.05;;;14.80;96.80;;;;;;5021051;28;20227;-79
2021/05/11 15:25:27;;;;;;;2.50;2.30;;;14.80;95.80;;;;;;5025215;28;20200;-79
2021/05/11 15:27:54;;;;;;;2.85;2.28;;;14.80;95.90;;;;;;5027613;28;20207;-80
2021/05/11 15:30:23;;;;;;;2.40;2.20;;;14.90;96.00;;;;;;5027786;28;20210;-78
2021/05/11 15:32:54;;;;;;;2.25;2.13;;;14.80;95.10;;;;;;5025032;28;20212;-79
2021/05/11 15:35:23;;;;;;;2.10;2.00;;;14.80;95.20;;;;;;5026960;28;20279;-78
2021/05/11 15:37:53;;;;;;;1.40;1.23;;;14.80;94.70;;;;;;5024764;28;20526;-78
2021/05/11 15:40:21;;;;;;;1.70;1.60;;;14.70;93.80;;;;;;5022304;28;20438;-78
2021/05/11 15:42:48;;;;;;;1.63;1.50;;;14.60;93.40;;;;;;5022411;28;20253;-79
2021/05/11 15:45:16;;;;;;;1.83;1.60;;;14.50;93.40;;;;;;5020434;28;20303;-79
2021/05/11 15:47:52;;;;;;;1.15;1.15;;;14.50;94.90;;;;;;5019326;28;20215;-78
2021/05/11 15:50:21;;;;;;;1.85;1.60;;;14.50;94.30;;;;;;5018976;28;20210;-78
2021/05/11 15:52:48;;;;;;;2.95;1.90;;;14.50;94.70;;;;;;5018085;28;20204;-77
2021/05/11 15:55:15;;;;;;;1.83;1.63;;;14.50;95.50;;;;;;5003393;28;20208;-78
2021/05/11 15:57:42;;;;;;;1.48;1.42;;;14.50;95.20;;;;;;5005894;28;20270;-79
2021/05/11 16:00:10;;;;;;;2.38;2.20;;;14.50;95.30;;;;;;5018062;28;20259;-77
2021/05/11 16:02:36;;;;;;;2.63;2.42;;;14.50;95.00;;;;;;5010678;28;20315;-78
2021/05/11 16:05:05;;;;;;;2.47;2.28;;;14.50;95.60;;;;;;5038923;28;20199;-79
2021/05/11 16:07:33;;;;;;;2.58;2.38;;;14.50;96.30;;;;;;5036179;28;20203;-78
2021/05/11 16:10:01;;;;;;;2.60;2.33;;;14.50;96.70;;;;;;5029644;28;20232;-78
2021/05/11 16:12:27;;;;;;;2.72;2.60;;;14.50;96.90;;;;;;5026465;28;20274;-77